Time;durP1;ratioP1;P1;durP2;ratioP2;P2;SDS_P1;SDS_P2;PMS_P1;PMS_P2;Temp;Humidity;BMP_temperature;BMP_pressure;BME280_temperature;BME280_humidity;BME280_pressure;Samples;Min_cycle;Max_cycle;Signal;HPM_P1;HPM_P2
2021/07/04 00:00:33;;;;;;;28.35;21.00;;;;;;;18.71;84.89;99837.78;1774818;78;25840;-65
2021/07/04 00:03:04;;;;;;;22.42;19.82;;;;;;;18.69;84.89;99833.23;1778358;78;25870;-68
2021/07/04 00:05:45;;;;;;;23.98;20.60;;;;;;;18.69;85.01;99838.72;1775365;78;27427;-66
2021/07/04 00:08:16;;;;;;;24.15;20.85;;;;;;;18.72;85.17;99835.83;1783729;78;26008;-66
2021/07/04 00:10:48;;;;;;;26.33;21.33;;;;;;;18.71;85.30;99831.50;1800038;78;25975;-67
2021/07/04 00:13:16;;;;;;;30.70;21.10;;;;;;;18.73;85.36;99834.64;1807893;78;25792;-66
2021/07/04 00:15:43;;;;;;;26.00;21.73;;;;;;;18.72;85.39;99824.87;1781484;78;25791;-66
2021/07/04 00:18:14;;;;;;;29.00;20.52;;;;;;;18.73;85.46;99827.23;1752340;79;27401;-67
2021/07/04 00:20:42;;;;;;;23.47;20.92;;;;;;;18.73;85.46;99823.69;1738099;80;26078;-83
2021/07/04 00:23:10;;;;;;;28.05;22.15;;;;;;;18.75;85.56;99822.16;1752606;80;25876;-80
2021/07/04 00:25:37;;;;;;;27.77;22.27;;;;;;;18.76;85.64;99820.20;1733505;80;25715;-83
2021/07/04 00:28:05;;;;;;;25.52;21.90;;;;;;;18.75;85.48;99815.91;1800155;78;26445;-81
2021/07/04 00:30:32;;;;;;;27.87;22.30;;;;;;;18.72;85.35;99816.06;1810899;78;27353;-81
2021/07/04 00:32:59;;;;;;;32.67;21.70;;;;;;;18.71;85.45;99812.32;1766036;79;25732;-80
2021/07/04 00:35:28;;;;;;;30.65;23.92;;;;;;;18.70;85.49;99812.91;1753141;79;25932;-76
2021/07/04 00:37:55;;;;;;;31.52;23.45;;;;;;;18.69;85.58;99810.55;1735450;80;26247;-80
2021/07/04 06:01:48;;;;;;;26.02;20.43;;;;;;;20.06;87.61;99867.34;1754536;76;72470;-66
2021/07/04 06:04:14;;;;;;;26.40;20.25;;;;;;;20.12;87.47;99867.94;1750689;79;26091;-66
2021/07/04 06:06:41;;;;;;;26.02;19.77;;;;;;;20.16;87.51;99862.48;1751870;80;25836;-66
2021/07/04 06:09:09;;;;;;;33.42;19.80;;;;;;;20.23;87.53;99860.37;1742060;79;26003;-73
2021/07/04 06:11:36;;;;;;;29.05;19.85;;;;;;;20.29;87.46;99861.55;1747226;79;27301;-72
2021/07/04 06:14:02;;;;;;;26.90;20.82;;;;;;;20.35;87.20;99873.75;1758993;79;25935;-72
2021/07/04 06:16:29;;;;;;;26.65;20.15;;;;;;;20.40;87.28;99868.45;1748064;80;25932;-67
2021/07/04 06:18:55;;;;;;;32.28;22.05;;;;;;;20.47;87.33;99869.88;1736885;80;25970;-67
2021/07/04 06:21:21;;;;;;;24.72;19.65;;;;;;;20.55;87.02;99867.94;1731185;81;25711;-67
2021/07/04 06:23:48;;;;;;;27.00;19.40;;;;;;;20.58;86.75;99866.57;1747148;80;29564;-65
2021/07/04 06:26:14;;;;;;;26.65;19.45;;;;;;;20.63;86.25;99867.59;1764015;78;25887;-67
2021/07/04 06:28:41;;;;;;;21.33;18.90;;;;;;;20.68;86.04;99865.07;1739546;80;25762;-67
2021/07/04 06:31:08;;;;;;;26.87;19.23;;;;;;;20.71;85.71;99876.07;1737237;80;25915;-65
2021/07/04 06:33:35;;;;;;;28.42;19.15;;;;;;;20.76;85.63;99872.77;1726697;81;25884;-67
2021/07/04 06:36:01;;;;;;;23.57;19.00;;;;;;;20.79;85.43;99878.27;1717585;81;27215;-66
2021/07/04 06:38:27;;;;;;;27.60;20.32;;;;;;;20.81;85.12;99881.41;1715976;81;25721;-66
2021/07/04 06:40:54;;;;;;;27.17;18.60;;;;;;;20.83;84.78;99877.67;1739283;80;26123;-67
2021/07/04 06:43:20;;;;;;;27.37;18.48;;;;;;;20.85;84.76;99878.06;1737395;80;26269;-66
2021/07/04 06:45:47;;;;;;;22.02;18.20;;;;;;;20.88;84.58;99875.92;1747720;79;25839;-66
2021/07/04 06:48:13;;;;;;;21.42;18.10;;;;;;;20.90;84.10;99878.28;1741562;79;27288;-64
2021/07/04 06:50:40;;;;;;;20.37;16.65;;;;;;;20.94;84.25;99879.66;1740892;80;25860;-67
2021/07/04 06:53:06;;;;;;;21.07;17.73;;;;;;;20.97;84.03;99876.91;1757525;80;25823;-66
2021/07/04 06:55:33;;;;;;;18.92;16.32;;;;;;;21.00;84.07;99867.89;1746152;80;26274;-68
2021/07/04 06:57:59;;;;;;;19.67;17.45;;;;;;;21.04;83.91;99869.27;1748889;80;25786;-69
2021/07/04 07:00:27;;;;;;;19.05;16.87;;;;;;;21.07;83.69;99870.65;1753255;80;27309;-68
2021/07/04 07:02:54;;;;;;;17.27;15.45;;;;;;;21.12;83.75;99875.58;1712271;80;25968;-68
2021/07/04 07:05:21;;;;;;;23.75;16.35;;;;;;;21.20;84.00;99873.05;1710707;81;25807;-68
2021/07/04 07:07:47;;;;;;;21.17;16.32;;;;;;;21.32;84.09;99873.22;1681734;83;26315;-75
2021/07/04 07:10:17;;;;;;;21.80;14.83;;;;;;;21.40;83.81;99877.55;1694748;81;25726;-75
2021/07/04 07:12:43;;;;;;;25.60;16.73;;;;;;;21.48;83.52;99877.01;1757365;78;27374;-62
2021/07/04 07:15:12;;;;;;;25.00;16.00;;;;;;;21.55;83.18;99868.74;1724690;80;25716;-61
2021/07/04 07:17:39;;;;;;;25.52;18.02;;;;;;;21.59;82.71;99875.83;1733471;80;26466;-61
2021/07/04 07:20:08;;;;;;;22.45;17.12;;;;;;;21.65;82.42;99878.96;1726525;80;25849;-61
2021/07/04 07:22:35;;;;;;;30.20;21.85;;;;;;;21.70;82.02;99873.66;1706501;80;25806;-61
2021/07/04 07:25:03;;;;;;;21.30;16.57;;;;;;;21.75;82.09;99871.87;1725382;79;27374;-61
2021/07/04 07:27:30;;;;;;;21.45;17.92;;;;;;;21.83;82.19;99874.22;1714851;80;25903;-61
2021/07/04 07:29:56;;;;;;;17.82;14.55;;;;;;;21.94;82.42;99869.29;1730982;80;25845;-75
2021/07/04 07:32:23;;;;;;;21.97;15.38;;;;;;;22.10;82.74;99868.84;1731357;80;29231;-74
2021/07/04 07:34:49;;;;;;;21.02;15.95;;;;;;;22.29;82.76;99874.55;1722286;80;25856;-74
2021/07/04 07:37:17;;;;;;;20.02;15.10;;;;;;;22.44;82.27;99880.20;1755157;78;27285;-73
2021/07/04 07:39:43;;;;;;;23.40;15.50;;;;;;;22.60;81.72;99874.81;1749215;80;26685;-74
2021/07/04 07:42:09;;;;;;;17.42;14.20;;;;;;;22.75;81.70;99885.95;1743247;80;26454;-75
2021/07/04 07:44:36;;;;;;;16.37;14.58;;;;;;;22.88;80.71;99882.94;1733838;80;26023;-74
2021/07/04 07:47:04;;;;;;;26.52;19.65;;;;;;;22.96;79.59;99878.75;1753421;80;25748;-74
2021/07/04 07:49:30;;;;;;;17.05;14.38;;;;;;;23.02;79.24;99876.55;1734260;80;27326;-74
2021/07/04 07:51:59;;;;;;;17.55;14.45;;;;;;;23.15;79.53;99867.81;1748627;80;26440;-74
2021/07/04 07:54:26;;;;;;;19.12;14.43;;;;;;;23.29;79.05;99869.88;1732370;80;25773;-61
2021/07/04 07:56:56;;;;;;;16.87;13.95;;;;;;;23.45;78.72;99863.83;1742789;80;25853;-61
2021/07/04 07:59:23;;;;;;;18.82;13.35;;;;;;;23.59;78.03;99860.16;1730034;80;26615;-61
2021/07/04 08:01:50;;;;;;;16.37;12.68;;;;;;;23.74;78.09;99864.95;1736477;80;27370;-61
2021/07/04 08:04:16;;;;;;;15.72;12.68;;;;;;;23.94;77.77;99866.56;1738629;80;25766;-75
2021/07/04 08:06:43;;;;;;;15.20;11.80;;;;;;;24.08;76.87;99862.86;1711442;80;25845;-73
2021/07/04 08:09:09;;;;;;;16.07;13.15;;;;;;;24.25;76.06;99858.33;1743039;80;27798;-74
2021/07/04 08:11:36;;;;;;;13.98;11.97;;;;;;;24.34;75.43;99859.20;1729207;81;25968;-74
2021/07/04 08:14:02;;;;;;;16.55;11.45;;;;;;;24.41;74.84;99857.13;1721605;80;27312;-73
2021/07/04 08:16:29;;;;;;;15.85;12.68;;;;;;;24.39;73.85;99852.61;1734533;80;26401;-73
2021/07/04 08:18:55;;;;;;;18.65;13.28;;;;;;;24.40;73.29;99854.19;1726303;81;26523;-79
2021/07/04 08:21:21;;;;;;;14.45;12.98;;;;;;;24.40;73.01;99854.19;1734825;80;25738;-75
2021/07/04 08:23:48;;;;;;;16.45;12.30;;;;;;;24.45;73.48;99852.16;1748002;80;26234;-79
2021/07/04 08:26:14;;;;;;;13.75;11.73;;;;;;;24.49;72.83;99845.39;1732480;80;27369;-81
2021/07/04 08:28:41;;;;;;;13.15;11.68;;;;;;;24.57;72.47;99848.28;1749145;80;27229;-76
2021/07/04 08:31:07;;;;;;;16.15;11.55;;;;;;;24.68;72.51;99851.50;1717307;81;25845;-72
2021/07/04 08:33:34;;;;;;;15.95;11.93;;;;;;;24.77;71.64;99842.07;1708794;81;25920;-72
2021/07/04 08:36:00;;;;;;;12.68;11.33;;;;;;;24.85;71.53;99850.45;1693364;83;26036;-67
2021/07/04 08:38:27;;;;;;;12.73;11.03;;;;;;;24.88;70.49;99844.09;1707264;82;28180;-67
2021/07/04 08:40:54;;;;;;;13.72;11.90;;;;;;;24.87;70.75;99840.36;1708823;81;25704;-73
2021/07/04 08:43:30;;;;;;;12.35;11.05;;;;;;;25.02;71.24;99834.79;1692992;82;25914;-72
2021/07/04 08:45:57;;;;;;;14.07;11.10;;;;;;;25.17;70.18;99845.04;1693292;83;25830;-69
2021/07/04 08:48:24;;;;;;;12.65;11.12;;;;;;;25.30;70.46;99841.89;1709866;81;25861;-72
2021/07/04 08:50:52;;;;;;;15.43;11.80;;;;;;;25.48;70.15;99840.80;1707385;82;27304;-72
2021/07/04 08:53:20;;;;;;;12.70;11.40;;;;;;;25.66;69.61;99846.02;1697877;82;25862;-74
2021/07/04 08:55:48;;;;;;;14.00;11.90;;;;;;;25.78;69.67;99841.84;1700299;82;25783;-70
2021/07/04 08:58:23;;;;;;;14.65;11.75;;;;;;;25.96;69.08;99848.47;1684338;83;25801;-79
2021/07/04 09:01:17;;;;;;;17.90;13.30;;;;;;;26.08;68.86;99838.94;1694943;83;25740;-82
2021/07/04 09:03:53;;;;;;;14.75;11.75;;;;;;;26.22;68.11;99841.22;1696639;82;27320;-78
2021/07/04 09:06:52;;;;;;;13.22;11.88;;;;;;;26.28;67.67;99843.06;1741053;80;25727;-80
2021/07/04 09:09:25;;;;;;;12.90;11.68;;;;;;;26.35;67.18;99841.36;1751858;79;26400;-77
2021/07/04 09:12:00;;;;;;;16.05;11.70;;;;;;;26.51;67.21;99846.97;1759644;78;25894;-77
2021/07/04 09:14:45;;;;;;;17.00;13.38;;;;;;;26.62;66.35;99838.41;1759835;80;26279;-71
2021/07/04 09:17:15;;;;;;;17.17;13.03;;;;;;;26.57;65.39;99834.75;1757570;80;27395;-74
2021/07/04 09:19:57;;;;;;;16.05;12.58;;;;;;;26.43;64.80;99835.23;1758825;80;26645;-75
2021/07/04 09:22:35;;;;;;;17.02;12.82;;;;;;;26.42;65.68;99835.05;1746078;78;25872;-73
2021/07/04 09:25:13;;;;;;;17.17;12.25;;;;;;;26.58;65.37;99832.14;1746088;80;25672;-77
2021/07/04 09:28:01;;;;;;;14.75;11.57;;;;;;;26.73;65.47;99832.05;1754010;80;25798;-76
2021/07/04 09:30:53;;;;;;;16.15;12.35;;;;;;;27.00;65.65;99824.08;1753350;80;27376;-76
2021/07/04 09:33:33;;;;;;;28.20;22.07;;;;;;;27.09;64.65;99822.89;1731950;80;25912;-82
2021/07/04 09:36:05;;;;;;;14.90;12.00;;;;;;;27.26;64.72;99821.47;1752207;80;25766;-83
2021/07/04 09:38:39;;;;;;;14.87;12.05;;;;;;;27.36;64.08;99815.70;1759524;80;25829;-82
2021/07/04 09:41:10;;;;;;;15.13;11.97;;;;;;;27.43;63.15;99818.10;1756346;78;25687;-80
2021/07/04 09:43:38;;;;;;;14.35;12.13;;;;;;;27.37;62.83;99815.08;1746185;80;27324;-77
2021/07/04 09:46:15;;;;;;;13.08;11.78;;;;;;;27.32;62.54;99817.77;1750059;79;25728;-75
2021/07/04 09:48:45;;;;;;;13.18;11.88;;;;;;;27.25;62.71;99816.54;1744769;80;25756;-76
2021/07/04 09:51:23;;;;;;;16.73;11.35;;;;;;;27.24;62.51;99814.19;1735607;80;26148;-78
2021/07/04 09:53:59;;;;;;;13.00;11.70;;;;;;;27.24;62.59;99805.87;1752657;80;25814;-80
2021/07/04 09:56:31;;;;;;;12.53;10.65;;;;;;;27.31;62.71;99809.28;1761104;80;28076;-86
2021/07/04 09:59:05;;;;;;;14.28;11.63;;;;;;;27.33;62.42;99801.91;1737056;79;25781;-59
2021/07/04 10:01:46;;;;;;;14.15;12.00;;;;;;;27.40;62.41;99792.00;1749505;80;26549;-86
2021/07/04 10:04:38;;;;;;;13.05;10.53;;;;;;;27.50;62.00;99794.33;1749157;79;26413;-58
2021/07/04 10:07:05;;;;;;;12.13;10.70;;;;;;;27.51;61.80;99800.81;1699500;83;25872;-59
2021/07/04 10:09:32;;;;;;;11.65;10.40;;;;;;;27.49;61.28;99793.53;1707813;82;26970;-59
2021/07/04 10:12:01;;;;;;;12.78;10.98;;;;;;;27.48;61.18;99797.55;1686941;82;26561;-80
2021/07/04 10:14:28;;;;;;;15.90;11.10;;;;;;;27.51;61.33;99792.48;1706917;82;25833;-79
2021/07/04 10:16:59;;;;;;;12.65;10.10;;;;;;;27.56;61.47;99785.63;1706366;82;25742;-73
2021/07/04 10:19:30;;;;;;;12.93;10.82;;;;;;;27.56;60.72;99790.56;1711532;82;25544;-76
2021/07/04 10:22:00;;;;;;;12.33;9.98;;;;;;;27.58;60.76;99787.34;1696444;82;27325;-79
2021/07/04 10:24:27;;;;;;;16.67;15.00;;;;;;;27.61;60.42;99780.15;1702176;83;25729;-78
2021/07/04 10:26:56;;;;;;;13.40;10.90;;;;;;;27.58;60.26;99777.04;1693295;83;25747;-61
2021/07/04 10:29:27;;;;;;;11.40;9.83;;;;;;;27.56;60.01;99776.67;1705372;83;26425;-75
2021/07/04 10:31:56;;;;;;;14.35;10.28;;;;;;;27.57;59.97;99774.08;1696806;83;26097;-74
2021/07/04 10:34:28;;;;;;;11.88;10.23;;;;;;;27.57;59.84;99773.30;1690577;83;27410;-71
2021/07/04 10:37:00;;;;;;;12.73;10.93;;;;;;;27.55;59.92;99776.52;1691829;83;25495;-70
2021/07/04 10:39:32;;;;;;;14.40;10.78;;;;;;;27.55;59.50;99763.25;1677794;84;26656;-59
2021/07/04 10:42:06;;;;;;;11.63;10.32;;;;;;;27.49;59.34;99774.09;1698238;80;25887;-71
2021/07/04 10:44:43;;;;;;;12.03;10.00;;;;;;;27.39;59.48;99764.83;1739343;80;25742;-71
2021/07/04 10:47:24;;;;;;;13.20;9.85;;;;;;;27.32;59.17;99771.19;1753029;80;27312;-71
2021/07/04 10:50:18;;;;;;;13.25;9.98;;;;;;;27.22;59.05;99775.77;1757200;79;25911;-71
2021/07/04 10:52:50;;;;;;;13.62;12.30;;;;;;;27.11;58.88;99766.95;1726741;81;25747;-71
2021/07/04 10:55:33;;;;;;;16.35;11.93;;;;;;;27.00;59.12;99766.61;1722190;81;27829;-61
2021/07/04 10:58:04;;;;;;;13.50;11.30;;;;;;;26.97;59.48;99763.89;1718371;81;25829;-60
2021/07/04 11:00:42;;;;;;;12.20;10.93;;;;;;;26.97;59.78;99764.70;1707122;82;27498;-60
2021/07/04 11:03:28;;;;;;;15.18;10.70;;;;;;;27.01;59.94;99756.28;1694461;82;25914;-60
2021/07/04 11:05:55;;;;;;;11.63;10.45;;;;;;;27.00;60.17;99756.89;1712917;81;25553;-60
2021/07/04 11:08:26;;;;;;;11.22;9.95;;;;;;;27.01;60.66;99747.95;1708962;81;25712;-60
2021/07/04 11:11:04;;;;;;;11.10;10.00;;;;;;;27.05;60.28;99743.09;1726954;81;25791;-60
2021/07/04 11:13:34;;;;;;;10.98;9.90;;;;;;;27.17;60.32;99747.14;1722319;81;27352;-82
2021/07/04 11:16:14;;;;;;;12.47;10.25;;;;;;;27.25;60.27;99747.75;1724184;81;25832;-79
2021/07/04 11:18:47;;;;;;;10.35;9.35;;;;;;;27.30;59.69;99752.19;1717833;80;25842;-81
2021/07/04 11:21:38;;;;;;;11.70;10.13;;;;;;;27.41;59.80;99742.80;1717605;81;25864;-80
2021/07/04 11:24:21;;;;;;;12.43;10.00;;;;;;;27.50;59.55;99738.79;1726457;80;25696;-75
2021/07/04 11:27:27;;;;;;;11.33;10.20;;;;;;;27.60;59.45;99735.53;1724910;81;28019;-76
2021/07/04 11:30:23;;;;;;;12.55;10.53;;;;;;;27.79;59.57;99732.41;1730157;81;25654;-73
2021/07/04 11:32:49;;;;;;;10.80;9.80;;;;;;;28.09;59.21;99725.02;1730926;81;25494;-76
2021/07/04 11:35:16;;;;;;;13.25;9.90;;;;;;;28.54;58.94;99725.22;1726921;81;25782;-76
2021/07/04 11:37:43;;;;;;;13.65;9.65;;;;;;;28.97;58.73;99721.84;1714174;82;25680;-78
2021/07/04 11:40:11;;;;;;;14.75;12.40;;;;;;;29.26;58.25;99719.50;1731040;81;27343;-80
2021/07/04 11:42:38;;;;;;;12.47;10.23;;;;;;;29.39;57.87;99730.60;1707155;81;26492;-77
2021/07/04 11:45:15;;;;;;;11.90;9.50;;;;;;;29.47;56.78;99729.09;1695119;82;25818;-73
2021/07/04 11:47:59;;;;;;;11.55;10.28;;;;;;;29.47;56.38;99729.72;1696816;81;25931;-74
2021/07/04 11:50:26;;;;;;;8.03;7.05;;;;;;;29.39;56.37;99743.91;1704560;81;25861;-74
2021/07/04 11:53:06;;;;;;;6.33;5.75;;;;;;;29.20;54.40;99748.55;1718934;81;29511;-79
2021/07/04 11:55:33;;;;;;;7.50;5.65;;;;;;;28.88;53.64;99763.52;1695028;83;27265;-73
2021/07/04 11:57:59;;;;;;;8.00;5.08;;;;;;;28.42;53.44;99759.56;1711652;82;25745;-74
2021/07/04 12:00:31;;;;;;;15.30;7.08;;;;;;;27.99;53.82;99760.83;1681420;83;27929;-76
2021/07/04 12:02:59;;;;;;;10.40;6.25;;;;;;;27.52;54.96;99757.95;1719599;82;25857;-77
2021/07/04 12:05:28;;;;;;;7.75;6.25;;;;;;;26.86;56.42;99755.08;1721550;82;28248;-77
2021/07/04 12:07:57;;;;;;;10.38;7.97;;;;;;;26.31;57.34;99762.44;1692717;82;25851;-77
2021/07/04 12:10:24;;;;;;;13.38;9.40;;;;;;;25.83;57.62;99758.25;1691155;83;26516;-77
2021/07/04 12:12:56;;;;;;;9.55;7.92;;;;;;;25.40;58.04;99753.55;1676934;83;26520;-75
2021/07/04 12:15:23;;;;;;;6.00;4.80;;;;;;;24.96;59.31;99748.73;1680070;84;25902;-74
2021/07/04 12:17:50;;;;;;;6.47;4.47;;;;;;;24.57;59.47;99745.22;1688824;84;28105;-76
2021/07/04 12:20:27;;;;;;;5.22;4.12;;;;;;;24.22;59.90;99741.11;1678019;83;25708;-76
2021/07/04 12:23:03;;;;;;;6.40;4.92;;;;;;;23.90;59.97;99730.48;1694190;83;26376;-76
2021/07/04 12:25:33;;;;;;;4.95;4.45;;;;;;;23.57;60.73;99723.77;1709378;83;25858;-75
2021/07/04 12:28:08;;;;;;;5.20;4.70;;;;;;;23.25;61.40;99720.13;1654172;84;25716;-75
2021/07/04 12:30:47;;;;;;;5.53;4.28;;;;;;;22.99;62.18;99715.25;1647650;85;27328;-75
2021/07/04 12:33:18;;;;;;;4.87;4.33;;;;;;;22.75;62.99;99719.95;1650458;85;25751;-75
2021/07/04 12:35:51;;;;;;;6.47;4.62;;;;;;;22.53;63.85;99712.44;1653930;84;25886;-77
2021/07/04 12:38:37;;;;;;;6.17;4.45;;;;;;;22.38;64.95;99708.98;1717723;82;25954;-75
2021/07/04 12:41:11;;;;;;;6.15;4.92;;;;;;;22.23;65.36;99706.10;1714394;82;25524;-74
2021/07/04 12:43:47;;;;;;;6.33;4.78;;;;;;;22.11;66.41;99710.10;1717970;82;27291;-76
2021/07/04 12:46:25;;;;;;;7.53;5.12;;;;;;;22.04;66.32;99701.88;1712383;81;25872;-75
2021/07/04 12:48:55;;;;;;;9.55;5.03;;;;;;;21.97;67.24;99700.55;1745529;81;25869;-75
2021/07/04 12:51:35;;;;;;;6.12;4.83;;;;;;;21.94;67.53;99699.97;1707959;81;27174;-75
2021/07/04 12:54:20;;;;;;;8.88;5.00;;;;;;;21.91;67.96;99700.77;1734867;81;25822;-75
2021/07/04 12:56:50;;;;;;;9.58;6.65;;;;;;;21.90;68.49;99699.98;1736686;81;27336;-74
2021/07/04 12:59:27;;;;;;;6.28;5.03;;;;;;;21.88;68.85;99698.23;1739865;81;25353;-74
2021/07/04 13:02:01;;;;;;;7.90;5.40;;;;;;;21.85;68.71;99703.77;1747287;81;26418;-75
2021/07/04 13:04:28;;;;;;;4.97;4.47;;;;;;;21.78;69.14;99706.72;1746125;81;26349;-76
2021/07/04 13:07:19;;;;;;;6.78;5.50;;;;;;;21.71;69.76;99704.01;1736172;81;25778;-75
2021/07/04 13:09:44;;;;;;;9.73;6.20;;;;;;;21.66;70.06;99700.86;1731242;81;27507;-74
2021/07/04 13:12:16;;;;;;;9.70;5.72;;;;;;;21.60;70.41;99702.65;1749694;81;25734;-75
2021/07/04 13:14:47;;;;;;;9.53;5.62;;;;;;;21.58;71.05;99698.74;1735632;81;25801;-75
2021/07/04 13:17:27;;;;;;;9.50;6.28;;;;;;;21.52;71.32;99683.24;1725269;81;26294;-76
2021/07/04 13:20:14;;;;;;;6.62;6.03;;;;;;;21.51;71.46;99684.41;1736030;81;25614;-75
2021/07/04 13:22:45;;;;;;;6.72;6.05;;;;;;;21.49;71.60;99690.91;1621169;87;29538;-74
2021/07/04 13:25:21;;;;;;;8.25;6.92;;;;;;;21.47;71.99;99691.10;1610611;87;26248;-63
2021/07/04 13:28:12;;;;;;;7.72;6.47;;;;;;;21.46;72.06;99693.05;1612183;87;26044;-62
2021/07/04 13:30:57;;;;;;;9.05;7.70;;;;;;;21.46;72.43;99690.30;1574514;89;25756;-61
2021/07/04 13:33:30;;;;;;;13.85;11.20;;;;;;;21.45;72.83;99692.84;1600045;88;25869;-63
2021/07/04 13:36:09;;;;;;;9.80;7.95;;;;;;;21.43;73.32;99697.96;1598146;89;27340;-63
2021/07/04 13:38:36;;;;;;;9.70;7.55;;;;;;;21.41;73.72;99702.48;1582880;89;26102;-63
2021/07/04 13:41:03;;;;;;;13.72;7.30;;;;;;;21.36;73.77;99703.48;1601040;88;25765;-63
2021/07/04 13:43:29;;;;;;;9.68;8.23;;;;;;;21.31;74.08;99715.67;1596731;88;25748;-63
2021/07/04 13:45:56;;;;;;;11.57;8.08;;;;;;;21.23;74.15;99719.61;1600492;89;26589;-63
2021/07/04 13:48:28;;;;;;;9.65;7.62;;;;;;;21.19;74.98;99725.12;1605254;88;29491;-63
2021/07/04 13:51:04;;;;;;;9.55;7.70;;;;;;;21.07;74.79;99722.18;1603456;88;25704;-63
2021/07/04 13:53:31;;;;;;;9.20;7.28;;;;;;;21.00;75.26;99732.41;1595538;88;25864;-63
2021/07/04 13:55:59;;;;;;;12.15;7.87;;;;;;;20.95;75.40;99727.31;1604384;88;26504;-63
2021/07/04 13:58:26;;;;;;;8.75;7.10;;;;;;;20.95;76.08;99729.45;1630340;86;25890;-63
2021/07/04 14:00:57;;;;;;;8.45;7.03;;;;;;;20.92;76.20;99723.97;1697882;82;27886;-63
2021/07/04 14:03:24;;;;;;;9.98;7.45;;;;;;;20.89;76.30;99720.02;1709273;83;25843;-63
2021/07/04 14:05:50;;;;;;;11.70;7.72;;;;;;;20.94;76.91;99725.72;1713933;83;26172;-63
2021/07/04 14:08:17;;;;;;;8.18;7.00;;;;;;;20.94;76.94;99721.61;1713489;82;25644;-63
2021/07/04 14:10:46;;;;;;;8.20;7.08;;;;;;;20.88;76.91;99707.48;1690447;83;25694;-63
2021/07/04 14:13:15;;;;;;;10.78;7.87;;;;;;;20.88;77.26;99717.88;1695511;83;29540;-63
2021/07/04 14:15:47;;;;;;;10.32;7.50;;;;;;;20.88;77.47;99719.25;1700856;83;25820;-63
2021/07/04 14:18:15;;;;;;;9.03;8.05;;;;;;;20.88;77.61;99712.37;1701698;83;25861;-63
2021/07/04 14:20:42;;;;;;;8.95;7.78;;;;;;;20.88;78.07;99708.25;1696106;83;26453;-62
2021/07/04 14:23:09;;;;;;;10.98;7.90;;;;;;;20.92;78.30;99704.72;1694950;83;25714;-62
2021/07/04 14:25:36;;;;;;;10.20;8.80;;;;;;;20.97;78.47;99709.83;1698885;83;27980;-63
2021/07/04 14:28:05;;;;;;;11.15;8.68;;;;;;;21.01;78.83;99702.34;1695792;83;25777;-63
2021/07/04 14:30:34;;;;;;;9.88;8.63;;;;;;;21.03;78.99;99706.29;1699935;83;25797;-63
2021/07/04 14:33:01;;;;;;;15.05;9.93;;;;;;;21.04;79.35;99706.50;1699393;83;25706;-62
2021/07/04 14:35:28;;;;;;;15.80;8.85;;;;;;;21.07;79.63;99709.03;1709764;83;25900;-62
2021/07/04 14:37:55;;;;;;;13.30;9.50;;;;;;;21.12;79.86;99711.98;1723658;81;27422;-62
2021/07/04 14:40:25;;;;;;;11.38;10.10;;;;;;;21.17;80.10;99720.61;1704034;83;25726;-62
2021/07/04 14:42:52;;;;;;;10.35;8.63;;;;;;;21.20;80.07;99717.67;1714179;83;25834;-62
2021/07/04 14:45:20;;;;;;;12.82;8.98;;;;;;;21.22;80.26;99722.95;1714330;83;25851;-64
2021/07/04 14:47:48;;;;;;;9.70;8.40;;;;;;;21.24;79.89;99727.47;1717223;82;25646;-62
2021/07/04 14:50:16;;;;;;;13.53;9.40;;;;;;;21.28;79.87;99724.70;1717808;82;27403;-62
2021/07/04 14:52:44;;;;;;;15.28;8.93;;;;;;;21.28;79.89;99721.95;1637205;84;25830;-63
2021/07/04 14:55:17;;;;;;;11.85;9.23;;;;;;;;;;1681806;83;25725;-63
2021/07/04 14:57:39;;;;;;;11.12;8.70;;;;;;;21.29;80.11;99720.02;1714143;82;26499;-63
2021/07/04 15:00:08;;;;;;;11.43;8.80;;;;;;;21.30;80.16;99720.19;1697437;82;25730;-63
2021/07/04 15:02:34;;;;;;;11.67;9.33;;;;;;;21.30;80.32;99712.74;1652498;84;27351;-63
2021/07/04 15:05:01;;;;;;;13.10;10.05;;;;;;;21.31;80.29;99720.39;1718628;82;26345;-63
2021/07/04 15:07:28;;;;;;;10.88;9.33;;;;;;;21.30;80.17;99711.94;1692351;83;25752;-63
2021/07/04 15:09:54;;;;;;;13.65;9.75;;;;;;;21.26;80.16;99716.84;1724834;82;25893;-63
2021/07/04 15:12:22;;;;;;;13.62;9.50;;;;;;;21.28;80.33;99715.08;1715485;83;25713;-63
2021/07/04 15:14:48;;;;;;;10.43;8.55;;;;;;;;;;1729385;81;28023;-63
2021/07/04 15:17:15;;;;;;;11.57;8.95;;;;;;;21.22;79.92;99714.70;1719381;81;25852;-63
2021/07/04 15:19:41;;;;;;;10.30;8.78;;;;;;;21.10;79.63;99706.88;1722596;81;25822;-63
2021/07/04 15:22:10;;;;;;;12.78;9.48;;;;;;;21.02;79.55;99710.20;1733194;81;25716;-63
2021/07/04 15:24:36;;;;;;;11.43;9.38;;;;;;;20.92;79.60;99710.22;1729314;81;25808;-63
2021/07/04 15:27:04;;;;;;;13.80;9.65;;;;;;;20.82;80.00;99711.22;1728046;81;27919;-62
2021/07/04 15:29:31;;;;;;;10.58;8.73;;;;;;;20.79;80.51;99714.75;1710858;81;25896;-62
2021/07/04 15:31:58;;;;;;;12.15;8.25;;;;;;;20.74;80.54;99712.95;1732507;81;25872;-63
2021/07/04 15:34:25;;;;;;;11.85;8.00;;;;;;;20.69;80.47;99715.53;1721030;82;26217;-64
2021/07/04 15:36:52;;;;;;;11.35;8.70;;;;;;;20.64;80.78;99715.91;1730822;81;25884;-61
2021/07/04 15:39:19;;;;;;;10.03;8.40;;;;;;;20.61;80.81;99711.95;1728331;81;27894;-62
2021/07/04 15:41:46;;;;;;;12.93;8.45;;;;;;;20.61;81.01;99716.66;1738861;81;25819;-63
2021/07/04 15:44:15;;;;;;;11.18;8.28;;;;;;;20.59;81.20;99707.44;1733388;81;25707;-63
2021/07/04 15:46:45;;;;;;;12.45;8.93;;;;;;;20.57;81.26;99710.36;1741749;81;25699;-62
2021/07/04 15:49:14;;;;;;;9.70;8.70;;;;;;;20.58;81.74;99713.32;1730356;81;25836;-63
2021/07/04 15:51:42;;;;;;;11.75;8.30;;;;;;;20.60;81.79;99720.01;1740661;81;27299;-62
2021/07/04 15:54:11;;;;;;;11.40;8.53;;;;;;;20.62;81.94;99722.34;1715650;82;25745;-62
2021/07/04 15:56:38;;;;;;;9.68;8.30;;;;;;;20.62;81.88;99723.17;1736559;81;25897;-63
2021/07/04 15:59:07;;;;;;;9.88;7.80;;;;;;;20.62;81.60;99717.67;1746035;81;25834;-63
2021/07/04 16:01:34;;;;;;;9.05;7.67;;;;;;;20.60;81.51;99724.70;1728806;81;25652;-63
2021/07/04 16:04:04;;;;;;;9.45;8.03;;;;;;;20.60;81.51;99720.01;1748392;81;27271;-63
2021/07/04 16:06:30;;;;;;;;;;;;;;;20.56;81.42;99723.32;1695600;82;25803;-63
2021/07/04 16:08:57;;;;;;;12.68;8.60;;;;;;;20.58;81.70;99730.58;1737827;81;26427;-62
2021/07/04 16:11:26;;;;;;;9.55;8.15;;;;;;;20.58;81.81;99728.43;1726043;81;25875;-62
2021/07/04 16:13:53;;;;;;;9.83;7.72;;;;;;;20.61;81.81;99731.17;1705833;82;25717;-62
2021/07/04 16:16:20;;;;;;;10.75;7.78;;;;;;;20.58;81.08;99726.45;1712791;83;27397;-63
2021/07/04 16:18:49;;;;;;;9.93;7.92;;;;;;;20.56;81.23;99732.16;1706954;83;26994;-77
2021/07/04 16:21:16;;;;;;;9.93;8.05;;;;;;;20.52;81.30;99726.66;1713123;83;26045;-77
2021/07/04 16:23:45;;;;;;;11.43;9.43;;;;;;;20.48;81.16;99721.73;1701301;82;25843;-77
2021/07/04 16:26:17;;;;;;;13.55;8.18;;;;;;;20.45;81.28;99719.77;1687550;83;26389;-77
2021/07/04 16:28:44;;;;;;;14.75;9.10;;;;;;;20.40;81.53;99714.66;1697367;83;27497;-76
2021/07/04 16:31:11;;;;;;;12.43;8.38;;;;;;;20.37;81.47;99721.73;1701145;83;28611;-72
2021/07/04 16:33:41;;;;;;;10.78;8.70;;;;;;;20.35;81.66;99718.59;1697835;83;25801;-76
2021/07/04 16:36:09;;;;;;;14.07;9.13;;;;;;;20.35;82.19;99722.70;1685098;83;26105;-78
2021/07/04 16:38:36;;;;;;;12.80;10.38;;;;;;;20.36;82.40;99722.89;1696415;83;25649;-78
2021/07/04 16:41:03;;;;;;;16.00;10.75;;;;;;;20.36;82.69;99727.01;1700388;83;27352;-76
2021/07/04 16:43:30;;;;;;;14.53;10.00;;;;;;;20.38;82.98;99722.50;1692976;83;26358;-78
2021/07/04 16:45:57;;;;;;;13.13;10.65;;;;;;;20.37;83.08;99727.22;1705957;83;25817;-77
2021/07/04 16:48:23;;;;;;;11.97;9.35;;;;;;;20.38;83.20;99727.42;1687392;83;26300;-77
2021/07/04 16:50:50;;;;;;;11.97;9.65;;;;;;;20.40;83.29;99719.58;1686615;83;25723;-77
2021/07/04 16:53:17;;;;;;;11.70;9.78;;;;;;;20.42;83.22;99731.55;1697362;83;27385;-77
2021/07/04 16:55:44;;;;;;;16.97;10.03;;;;;;;20.41;83.02;99728.00;1691289;83;25719;-77
2021/07/04 16:58:11;;;;;;;17.57;10.40;;;;;;;20.40;83.01;99725.07;1697978;83;26430;-76
2021/07/04 17:00:39;;;;;;;13.48;10.90;;;;;;;20.40;83.04;99731.94;1716996;83;25866;-76